createdAt,value
2018-07-25T00:01:41.302Z,100977.58
2018-07-25T00:04:08.460Z,100982.61
2018-07-25T00:06:35.588Z,100980.09
2018-07-25T00:09:03.084Z,100981.32
2018-07-25T00:11:30.256Z,100980.15
2018-07-25T00:13:57.404Z,100980.39
2018-07-25T00:16:24.572Z,100976.94
2018-07-25T00:18:51.835Z,100981.10
2018-07-25T00:21:18.962Z,100976.91
2018-07-25T00:23:46.075Z,100974.39
2018-07-25T00:26:13.315Z,100973.25
2018-07-25T00:28:40.425Z,100968.00
2018-07-25T00:31:07.546Z,100965.96
2018-07-25T00:33:34.699Z,100965.18
2018-07-25T00:36:01.873Z,100966.70
2018-07-25T00:38:28.986Z,100969.53
2018-07-25T00:40:56.179Z,100966.16
2018-07-25T00:43:23.295Z,100965.41
2018-07-25T00:45:50.424Z,100962.90
2018-07-25T00:48:17.675Z,100960.31
2018-07-25T00:50:44.796Z,100963.24
2018-07-25T00:53:11.932Z,100963.32
2018-07-25T00:55:39.190Z,100960.66
2018-07-25T00:58:06.343Z,100963.87
2018-07-25T01:00:33.502Z,100967.41
2018-07-25T01:03:00.668Z,100963.09
2018-07-25T01:05:27.821Z,100963.74
2018-07-25T01:07:54.933Z,100961.75
2018-07-25T01:10:22.115Z,100966.61
2018-07-25T01:12:49.249Z,100961.36
2018-07-25T01:15:16.385Z,100964.77
2018-07-25T01:17:43.532Z,100957.11
2018-07-25T01:20:10.656Z,100963.14
2018-07-25T01:22:37.816Z,100961.20
2018-07-25T01:25:05.040Z,100961.52
2018-07-25T01:27:32.200Z,100959.89
2018-07-25T01:29:59.313Z,100967.10
2018-07-25T01:32:26.519Z,100960.38
2018-07-25T01:34:53.656Z,100959.81
2018-07-25T01:37:20.794Z,100960.66
2018-07-25T01:39:48.013Z,100963.51
2018-07-25T01:42:15.110Z,100967.89
2018-07-25T01:44:42.222Z,100973.77
2018-07-25T01:47:09.386Z,100970.31
2018-07-25T01:49:36.519Z,100974.56
2018-07-25T01:52:03.690Z,100972.52
2018-07-25T01:54:30.877Z,100973.05
2018-07-25T01:56:58.023Z,100974.78
2018-07-25T01:59:27.312Z,100975.97
2018-07-25T02:01:55.200Z,100977.91
2018-07-25T02:04:22.317Z,100979.97
2018-07-25T02:06:49.446Z,100983.09
2018-07-25T02:09:16.621Z,100986.70
2018-07-25T02:11:43.794Z,100985.04
2018-07-25T02:14:10.913Z,100994.69
2018-07-25T02:16:38.147Z,100990.30
2018-07-25T02:19:05.276Z,100991.62
2018-07-25T02:21:32.436Z,100990.69
2018-07-25T02:23:59.667Z,100992.48
2018-07-25T02:26:26.800Z,100997.27
2018-07-25T02:28:53.923Z,101002.13
2018-07-25T02:31:21.067Z,100996.73
2018-07-25T02:33:53.915Z,100985.76
2018-07-25T02:36:21.203Z,100993.35
2018-07-25T02:38:48.336Z,100991.62
2018-07-25T02:41:15.461Z,100988.17
2018-07-25T02:43:42.803Z,100989.03
2018-07-25T02:46:09.933Z,100989.50
2018-07-25T02:48:37.029Z,100991.77
2018-07-25T02:51:04.216Z,100997.34
2018-07-25T02:53:31.350Z,100994.36
2018-07-25T02:55:58.536Z,100988.57
2018-07-25T02:58:25.947Z,100990.62
2018-07-25T03:00:53.081Z,100988.75
2018-07-25T03:03:20.193Z,100999.22
2018-07-25T03:05:47.356Z,100992.89
2018-07-25T03:08:14.574Z,100992.02
2018-07-25T03:10:47.419Z,100997.28
2018-07-25T03:13:14.583Z,100999.94
2018-07-25T03:15:41.680Z,101007.00
2018-07-25T03:18:08.869Z,101013.27
2018-07-25T03:20:36.015Z,101012.47
2018-07-25T03:23:03.195Z,101013.41
2018-07-25T03:25:30.383Z,101014.34
2018-07-25T03:27:57.498Z,101018.73
2018-07-25T03:30:24.660Z,101023.20
2018-07-25T03:32:51.902Z,101024.92
2018-07-25T03:35:19.034Z,101021.08
2018-07-25T03:37:46.198Z,101023.73
2018-07-25T03:40:13.448Z,101025.47
2018-07-25T03:42:40.579Z,101032.30
2018-07-25T03:45:07.717Z,101037.16
2018-07-25T03:47:34.868Z,101030.53
2018-07-25T03:50:01.997Z,101035.86
2018-07-25T03:52:29.098Z,101042.44
2018-07-25T03:54:56.268Z,101045.62
2018-07-25T03:57:23.386Z,101046.87
2018-07-25T03:59:50.518Z,101052.19
2018-07-25T04:02:17.700Z,101045.65
2018-07-25T04:04:44.888Z,101045.16
2018-07-25T04:07:12.072Z,101050.47
2018-07-25T04:09:39.325Z,101048.16
2018-07-25T04:12:06.424Z,101049.54
2018-07-25T04:14:33.634Z,101056.32
2018-07-25T04:17:00.787Z,101053.70
2018-07-25T04:19:27.912Z,101058.21
2018-07-25T04:21:55.050Z,101057.00
2018-07-25T04:24:22.194Z,101057.81
2018-07-25T04:26:49.311Z,101062.16
2018-07-25T04:29:16.423Z,101064.54
2018-07-25T04:31:43.721Z,101063.17
2018-07-25T04:34:10.852Z,101067.62
2018-07-25T04:36:38.052Z,101074.30
2018-07-25T04:39:07.487Z,101065.34
2018-07-25T04:41:34.636Z,101064.95
2018-07-25T04:44:01.799Z,101069.81
2018-07-25T04:46:29.004Z,101073.35
2018-07-25T04:48:56.128Z,101078.30
2018-07-25T04:51:23.241Z,101078.70
2018-07-25T04:53:50.435Z,101063.86
2018-07-25T04:56:17.561Z,101069.39
2018-07-25T04:58:44.708Z,101071.64
2018-07-25T05:01:11.888Z,101071.76
2018-07-25T05:03:39.021Z,101065.31
2018-07-25T05:06:06.139Z,101071.27
2018-07-25T05:08:33.313Z,101070.38
2018-07-25T05:11:00.434Z,101072.17
2018-07-25T05:13:28.033Z,101072.45
2018-07-25T05:15:55.350Z,101076.25
2018-07-25T05:18:25.482Z,101070.59
2018-07-25T05:20:52.603Z,101070.28
2018-07-25T05:23:19.892Z,101070.63
2018-07-25T05:25:47.032Z,101072.59
2018-07-25T05:28:14.186Z,101074.86
2018-07-25T05:30:41.440Z,101074.44
2018-07-25T05:33:08.600Z,101079.00
2018-07-25T05:35:35.701Z,101081.48
2018-07-25T05:38:03.042Z,101079.95
2018-07-25T05:40:30.117Z,101076.95
2018-07-25T05:42:57.252Z,101074.14
2018-07-25T05:45:24.443Z,101087.31
2018-07-25T05:47:52.417Z,101079.31
2018-07-25T05:50:19.518Z,101084.38
2018-07-25T05:52:46.688Z,101083.53
2018-07-25T05:55:13.798Z,101084.84
2018-07-25T05:57:40.960Z,101088.37
2018-07-25T06:00:08.173Z,101088.16
2018-07-25T06:02:35.315Z,101094.44
2018-07-25T06:05:02.460Z,101095.95
2018-07-25T06:07:29.657Z,101095.24
2018-07-25T06:09:56.799Z,101094.83
2018-07-25T06:12:23.936Z,101097.28
2018-07-25T06:14:51.092Z,101100.77
2018-07-25T06:17:18.317Z,101104.27
2018-07-25T06:19:45.465Z,101107.36
2018-07-25T06:22:12.629Z,101112.34
2018-07-25T06:24:39.774Z,101113.62
2018-07-25T06:27:06.968Z,101118.89
2018-07-25T06:29:34.146Z,101117.76
2018-07-25T06:32:01.306Z,101117.82
2018-07-25T06:34:28.415Z,101114.05
2018-07-25T06:36:55.700Z,101109.18
2018-07-25T06:39:22.843Z,101109.77
2018-07-25T06:41:49.962Z,101117.73
2018-07-25T06:44:17.110Z,101115.67
2018-07-25T06:46:44.225Z,101120.76
2018-07-25T06:49:11.371Z,101115.27
2018-07-25T06:51:38.602Z,101117.12
2018-07-25T06:54:06.345Z,101119.61
2018-07-25T06:56:33.469Z,101121.58
2018-07-25T06:59:00.642Z,101125.02
2018-07-25T07:01:28.369Z,101124.77
2018-07-25T07:03:55.501Z,101130.92
2018-07-25T07:06:22.855Z,101127.46
2018-07-25T07:08:49.990Z,101130.62
2018-07-25T07:11:17.108Z,101130.38
2018-07-25T07:13:44.264Z,101138.95
2018-07-25T07:16:11.444Z,101141.73
2018-07-25T07:18:38.688Z,101142.59
2018-07-25T07:21:05.875Z,101134.11
2018-07-25T07:23:33.003Z,101136.70
2018-07-25T07:26:00.120Z,101140.91
2018-07-25T07:28:27.283Z,101138.83
2018-07-25T07:30:54.435Z,101132.53
2018-07-25T07:33:21.578Z,101137.03
2018-07-25T07:35:48.790Z,101136.00
2018-07-25T07:38:15.916Z,101136.06
2018-07-25T07:40:43.045Z,101140.18
2018-07-25T07:43:10.313Z,101141.65
2018-07-25T07:45:37.482Z,101137.54
2018-07-25T07:48:04.672Z,101144.42
2018-07-25T07:50:31.868Z,101143.11
2018-07-25T07:52:59.008Z,101152.99
2018-07-25T07:55:26.125Z,101150.20
2018-07-25T07:57:53.315Z,101147.98
2018-07-25T08:00:20.445Z,101142.08
2018-07-25T08:02:47.615Z,101145.84
2018-07-25T08:05:14.836Z,101143.95
2018-07-25T08:07:41.978Z,101150.20
2018-07-25T08:10:09.116Z,101145.06
2018-07-25T08:12:36.313Z,101147.53
2018-07-25T08:15:03.935Z,101143.61
2018-07-25T08:17:31.079Z,101143.84
2018-07-25T08:19:58.335Z,101144.66
2018-07-25T08:22:25.454Z,101143.36
2018-07-25T08:24:52.620Z,101143.36
2018-07-25T08:27:19.815Z,101139.31
2018-07-25T08:29:47.005Z,101137.39
2018-07-25T08:32:15.848Z,101132.67
2018-07-25T08:34:43.026Z,101137.48
2018-07-25T08:37:10.115Z,101128.20
2018-07-25T08:39:37.239Z,101131.08
2018-07-25T08:42:04.561Z,101139.54
2018-07-25T08:44:31.708Z,101142.14
2018-07-25T08:46:58.815Z,101144.45
2018-07-25T08:49:25.993Z,101137.99
2018-07-25T08:51:53.148Z,101135.22
2018-07-25T08:54:20.266Z,101136.85
2018-07-25T08:56:47.449Z,101137.59
2018-07-25T08:59:14.608Z,101134.36
2018-07-25T09:01:41.804Z,101134.26
2018-07-25T09:04:08.980Z,101132.94
2018-07-25T09:06:36.100Z,101135.11
2018-07-25T09:09:05.734Z,101130.64
2018-07-25T09:11:35.160Z,101130.62
2018-07-25T09:14:02.515Z,101129.73
2018-07-25T09:16:30.076Z,101134.25
2018-07-25T09:18:57.394Z,101128.19
2018-07-25T09:21:24.556Z,101131.36
2018-07-25T09:23:51.671Z,101123.74
2018-07-25T09:26:18.839Z,101136.69
2018-07-25T09:28:46.100Z,101135.61
2018-07-25T09:31:13.282Z,101134.16
2018-07-25T09:33:40.601Z,101138.29
2018-07-25T09:36:07.735Z,101129.96
2018-07-25T09:38:34.864Z,101127.89
2018-07-25T09:41:02.241Z,101135.09
2018-07-25T09:43:29.445Z,101133.77
2018-07-25T09:45:56.599Z,101125.46
2018-07-25T09:48:23.790Z,101125.25
2018-07-25T09:50:50.969Z,101125.75
2018-07-25T09:53:18.112Z,101130.34
2018-07-25T09:55:45.328Z,101126.92
2018-07-25T09:58:12.512Z,101120.31
2018-07-25T10:00:45.341Z,101113.54
2018-07-25T10:03:12.512Z,101114.58
2018-07-25T10:05:39.664Z,101114.05
2018-07-25T10:08:06.872Z,101118.94
2018-07-25T10:10:34.012Z,101114.86
2018-07-25T10:13:01.168Z,101114.52
2018-07-25T10:15:28.336Z,101114.02
2018-07-25T10:17:55.446Z,101112.08
2018-07-25T10:20:22.600Z,101119.14
2018-07-25T10:22:49.923Z,101106.25
2018-07-25T10:25:17.103Z,101110.39
2018-07-25T10:27:44.232Z,101113.48
2018-07-25T10:30:11.453Z,101114.21
2018-07-25T10:32:38.651Z,101119.11
2018-07-25T10:35:05.861Z,101116.05
2018-07-25T10:37:33.062Z,101109.73
2018-07-25T10:40:00.193Z,101113.33
2018-07-25T10:42:27.382Z,101106.48
2018-07-25T10:44:54.543Z,101106.14
2018-07-25T10:47:21.790Z,101104.13
2018-07-25T10:49:48.962Z,101102.63
2018-07-25T10:52:16.262Z,101097.72
2018-07-25T10:54:43.460Z,101096.12
2018-07-25T10:57:10.626Z,101097.06
2018-07-25T10:59:37.880Z,101096.83
2018-07-25T11:02:05.058Z,101101.09
2018-07-25T11:04:32.190Z,101100.17
2018-07-25T11:06:59.372Z,101091.05
2018-07-25T11:09:26.507Z,101088.28
2018-07-25T11:11:53.636Z,101092.27
2018-07-25T11:14:20.806Z,101089.51
2018-07-25T11:16:47.971Z,101087.52
2018-07-25T11:19:15.110Z,101089.44
2018-07-25T11:21:42.302Z,101092.83
2018-07-25T11:24:09.521Z,101089.70
2018-07-25T11:26:36.672Z,101084.57
2018-07-25T11:29:03.927Z,101090.73
2018-07-25T11:31:31.042Z,101086.91
2018-07-25T11:33:58.164Z,101095.71
2018-07-25T11:36:25.378Z,101084.61
2018-07-25T11:38:52.564Z,101088.88
2018-07-25T11:41:19.689Z,101084.79
2018-07-25T11:43:46.919Z,101078.68
2018-07-25T11:46:14.057Z,101075.13
2018-07-25T11:48:41.232Z,101075.38
2018-07-25T11:51:08.472Z,101067.55
2018-07-25T11:53:35.591Z,101073.66
2018-07-25T11:56:02.798Z,101073.63
2018-07-25T11:58:30.064Z,101068.69
2018-07-25T12:00:57.236Z,101067.61
2018-07-25T12:03:24.380Z,101069.55
2018-07-25T12:05:51.539Z,101064.08
2018-07-25T12:08:18.665Z,101070.05
2018-07-25T12:10:45.824Z,101061.03
2018-07-25T12:13:13.045Z,101059.46
2018-07-25T12:15:40.289Z,101059.97
2018-07-25T12:18:07.475Z,101054.62
2018-07-25T12:20:34.709Z,101052.55
2018-07-25T12:23:01.856Z,101042.04
2018-07-25T12:25:29.092Z,101037.87
2018-07-25T12:27:56.293Z,101043.44
2018-07-25T12:30:23.463Z,101042.71
2018-07-25T12:32:50.625Z,101036.05
2018-07-25T12:35:17.793Z,101039.84
2018-07-25T12:37:44.960Z,101031.60
2018-07-25T12:40:12.106Z,101028.98
2018-07-25T12:42:39.442Z,101029.23
2018-07-25T12:45:06.576Z,101025.55
2018-07-25T12:47:33.720Z,101025.41
2018-07-25T12:50:00.981Z,101020.27
2018-07-25T12:52:28.121Z,101010.18
2018-07-25T12:54:55.248Z,101007.03
2018-07-25T12:57:22.459Z,101014.98
2018-07-25T12:59:49.608Z,100999.67
2018-07-25T13:02:16.769Z,101005.78
2018-07-25T13:04:44.023Z,101004.21
2018-07-25T13:07:11.155Z,101001.20
2018-07-25T13:09:38.355Z,101004.61
2018-07-25T13:12:05.571Z,100999.81
2018-07-25T13:14:32.727Z,100995.68
2018-07-25T13:16:59.923Z,100989.46
2018-07-25T13:19:27.132Z,100992.14
2018-07-25T13:21:54.318Z,100992.19
2018-07-25T13:24:21.508Z,100989.63
2018-07-25T13:26:48.721Z,100988.86
2018-07-25T13:29:15.851Z,100994.19
2018-07-25T13:31:43.004Z,100988.18
2018-07-25T13:34:10.196Z,100986.27
2018-07-25T13:36:37.625Z,100980.95
2018-07-25T13:39:06.519Z,100979.08
2018-07-25T13:41:34.280Z,100981.03
2018-07-25T13:44:01.416Z,100986.09
2018-07-25T13:46:28.634Z,100980.38
2018-07-25T13:48:55.830Z,100976.02
2018-07-25T13:51:22.989Z,100971.30
2018-07-25T13:53:50.137Z,100970.91
2018-07-25T13:56:17.345Z,100972.70
2018-07-25T13:58:44.496Z,100969.05
2018-07-25T14:01:11.665Z,100968.92
2018-07-25T14:03:38.891Z,100961.14
2018-07-25T14:06:06.089Z,100948.94
2018-07-25T14:08:33.212Z,100958.98
2018-07-25T14:11:00.478Z,100950.95
2018-07-25T14:13:27.634Z,100951.59
2018-07-25T14:15:55.096Z,100952.87
2018-07-25T14:18:22.291Z,100947.88
2018-07-25T14:20:49.453Z,100951.05
2018-07-25T14:23:16.970Z,100946.34
2018-07-25T14:25:44.211Z,100942.27
2018-07-25T14:28:11.481Z,100948.66
2018-07-25T14:30:38.797Z,100948.29
2018-07-25T14:33:05.965Z,100948.69
2018-07-25T14:35:33.141Z,100946.70
2018-07-25T14:38:00.311Z,100946.63
2018-07-25T14:40:27.604Z,100937.06
2018-07-25T14:42:54.739Z,100937.92
2018-07-25T14:45:21.883Z,100939.66
2018-07-25T14:47:49.240Z,100935.28
2018-07-25T14:50:16.406Z,100936.26
2018-07-25T14:52:43.573Z,100935.24
2018-07-25T14:55:10.782Z,100937.96
2018-07-25T14:57:38.140Z,100941.33
2018-07-25T15:00:05.995Z,100939.78
2018-07-25T15:02:33.391Z,100933.99
2018-07-25T15:05:00.540Z,100929.26
2018-07-25T15:07:27.676Z,100935.03
2018-07-25T15:09:54.869Z,100937.81
2018-07-25T15:12:27.800Z,100930.38
2018-07-25T15:14:55.069Z,100918.91
2018-07-25T15:17:22.201Z,100915.36
2018-07-25T15:19:49.340Z,100922.00
2018-07-25T15:22:16.569Z,100924.11
2018-07-25T15:24:44.190Z,100922.70
2018-07-25T15:27:11.702Z,100923.97
2018-07-25T15:29:38.953Z,100923.73
2018-07-25T15:32:06.119Z,100922.75
2018-07-25T15:34:33.253Z,100924.66
2018-07-25T15:37:00.461Z,100923.53
2018-07-25T15:39:27.622Z,100922.75
2018-07-25T15:41:56.073Z,100922.00
2018-07-25T15:44:24.280Z,100918.34
2018-07-25T15:46:51.484Z,100920.51
2018-07-25T15:49:18.627Z,100913.97
2018-07-25T15:51:45.881Z,100920.01
2018-07-25T15:54:13.060Z,100916.55
2018-07-25T15:56:40.225Z,100910.84
2018-07-25T15:59:07.673Z,100912.48
2018-07-25T16:01:34.883Z,100915.59
2018-07-25T16:04:02.045Z,100914.66
2018-07-25T16:06:29.236Z,100916.77
2018-07-25T16:08:56.394Z,100924.17
2018-07-25T16:11:23.958Z,100923.64
2018-07-25T16:13:51.235Z,100919.08
2018-07-25T16:16:19.002Z,100925.25
2018-07-25T16:18:46.466Z,100925.66
2018-07-25T16:21:13.784Z,100920.78
2018-07-25T16:23:40.968Z,100913.09
2018-07-25T16:26:08.164Z,100913.88
2018-07-25T16:28:35.464Z,100912.92
2018-07-25T16:31:02.871Z,100920.22
2018-07-25T16:33:30.036Z,100911.75
2018-07-25T16:35:57.354Z,100914.27
2018-07-25T16:38:24.526Z,100908.18
2018-07-25T16:40:51.714Z,100908.42
2018-07-25T16:43:19.000Z,100911.74
2018-07-25T16:45:46.701Z,100914.90
2018-07-25T16:48:14.270Z,100910.58
2018-07-25T16:50:41.479Z,100907.28
2018-07-25T16:53:08.623Z,100898.00
2018-07-25T16:55:35.801Z,100904.02
2018-07-25T16:58:03.016Z,100899.45
2018-07-25T17:00:30.178Z,100904.02
2018-07-25T17:02:57.448Z,100902.28
2018-07-25T17:05:24.645Z,100897.14
2018-07-25T17:07:51.888Z,100902.27
2018-07-25T17:10:18.998Z,100898.59
2018-07-25T17:12:46.293Z,100904.41
2018-07-25T17:15:13.448Z,100899.83
2018-07-25T17:17:40.591Z,100909.87
2018-07-25T17:20:07.863Z,100906.55
2018-07-25T17:22:35.025Z,100904.30
2018-07-25T17:25:02.260Z,100911.55
2018-07-25T17:27:29.501Z,100917.97
2018-07-25T17:29:56.654Z,100910.06
2018-07-25T17:32:23.872Z,100915.92
2018-07-25T17:34:51.141Z,100912.86
2018-07-25T17:37:18.296Z,100916.13
2018-07-25T17:39:45.625Z,100915.58
2018-07-25T17:42:12.884Z,100917.05
2018-07-25T17:44:40.038Z,100917.22
2018-07-25T17:47:07.217Z,100918.52
2018-07-25T17:49:34.473Z,100907.45
2018-07-25T17:52:01.701Z,100918.80
2018-07-25T17:54:28.952Z,100917.75
2018-07-25T17:56:56.325Z,100919.86
2018-07-25T17:59:23.396Z,100918.63
2018-07-25T18:01:50.568Z,100917.50
2018-07-25T18:04:17.781Z,100918.73
2018-07-25T18:06:44.959Z,100921.30
2018-07-25T18:09:12.164Z,100920.91
2018-07-25T18:11:39.473Z,100921.98
2018-07-25T18:14:11.497Z,100925.55
2018-07-25T18:16:39.929Z,100932.30
2018-07-25T18:19:07.113Z,100929.49
2018-07-25T18:21:34.299Z,100929.95
2018-07-25T18:24:01.532Z,100931.95
2018-07-25T18:26:28.693Z,100937.52
2018-07-25T18:28:55.888Z,100936.92
2018-07-25T18:31:23.194Z,100941.01
2018-07-25T18:33:50.400Z,100942.59
2018-07-25T18:36:17.586Z,100949.59
2018-07-25T18:38:44.978Z,100943.10
2018-07-25T18:41:12.207Z,100953.16
2018-07-25T18:43:39.374Z,100951.20
2018-07-25T18:46:06.712Z,100954.89
2018-07-25T18:48:33.903Z,100953.97
2018-07-25T18:51:01.041Z,100964.84
2018-07-25T18:53:28.283Z,100966.70
2018-07-25T18:55:55.437Z,100974.34
2018-07-25T18:58:22.603Z,100976.81
2018-07-25T19:00:49.832Z,100974.88
2018-07-25T19:03:16.983Z,100986.00
2018-07-25T19:05:44.101Z,100993.14
2018-07-25T19:08:11.292Z,100985.48
2018-07-25T19:10:38.445Z,100992.44
2018-07-25T19:13:11.188Z,100997.16
2018-07-25T19:15:38.357Z,101003.50
2018-07-25T19:18:05.505Z,100996.48
2018-07-25T19:20:32.676Z,100999.84
2018-07-25T19:22:59.822Z,101001.86
2018-07-25T19:25:26.987Z,101005.73
2018-07-25T19:27:54.173Z,101013.70
2018-07-25T19:30:21.429Z,101014.09
2018-07-25T19:32:49.061Z,101020.25
2018-07-25T19:35:16.319Z,101019.80
2018-07-25T19:37:43.444Z,101023.22
2018-07-25T19:40:10.575Z,101024.95
2018-07-25T19:42:37.750Z,101023.48
2018-07-25T19:45:04.907Z,101025.56
2018-07-25T19:47:32.052Z,101027.28
2018-07-25T19:49:59.222Z,101029.36
2018-07-25T19:52:26.337Z,101030.08
2018-07-25T19:54:53.863Z,101031.86
2018-07-25T19:57:21.117Z,101033.06
2018-07-25T19:59:48.479Z,101035.76
2018-07-25T20:02:15.591Z,101038.78
2018-07-25T20:04:42.759Z,101042.78
2018-07-25T20:07:09.969Z,101041.06
2018-07-25T20:09:37.051Z,101045.58
2018-07-25T20:12:04.238Z,101045.19
2018-07-25T20:14:37.181Z,101048.80
2018-07-25T20:17:04.458Z,101046.30
2018-07-25T20:19:31.541Z,101047.74
2018-07-25T20:21:58.681Z,101049.08
2018-07-25T20:24:25.859Z,101055.31
2018-07-25T20:26:52.996Z,101058.75
2018-07-25T20:29:20.167Z,101056.81
2018-07-25T20:31:47.370Z,101053.38
2018-07-25T20:34:14.518Z,101051.39
2018-07-25T20:36:41.720Z,101044.41
2018-07-25T20:39:10.656Z,101052.45
2018-07-25T20:41:37.877Z,101052.18
2018-07-25T20:44:05.097Z,101057.43
2018-07-25T20:46:32.289Z,101052.48
2018-07-25T20:48:59.448Z,101056.88
2018-07-25T20:51:26.615Z,101056.88
2018-07-25T20:53:53.773Z,101061.84
2018-07-25T20:56:20.949Z,101063.61
2018-07-25T20:58:48.067Z,101063.11
2018-07-25T21:01:15.243Z,101057.44
2018-07-25T21:03:42.360Z,101059.36
2018-07-25T21:06:09.504Z,101063.39
2018-07-25T21:08:36.692Z,101059.81
2018-07-25T21:11:03.895Z,101064.40
2018-07-25T21:13:31.016Z,101076.04
2018-07-25T21:15:58.212Z,101070.56
2018-07-25T21:18:25.452Z,101077.20
2018-07-25T21:20:52.562Z,101076.03
2018-07-25T21:23:19.740Z,101084.70
2018-07-25T21:25:46.907Z,101080.19
2018-07-25T21:28:14.048Z,101082.50
2018-07-25T21:30:41.255Z,101088.46
2018-07-25T21:33:08.486Z,101091.02
2018-07-25T21:35:35.595Z,101094.02
2018-07-25T21:38:02.836Z,101096.25
2018-07-25T21:40:29.996Z,101093.53
2018-07-25T21:42:57.107Z,101098.25
2018-07-25T21:45:24.275Z,101103.48
2018-07-25T21:47:51.408Z,101104.06
2018-07-25T21:50:18.551Z,101102.83
2018-07-25T21:52:45.736Z,101101.58
2018-07-25T21:55:12.848Z,101102.78
2018-07-25T21:57:39.966Z,101104.44
2018-07-25T22:00:11.916Z,101099.61
2018-07-25T22:02:39.045Z,101105.79
2018-07-25T22:05:06.196Z,101103.74
2018-07-25T22:07:33.382Z,101116.55
2018-07-25T22:10:00.499Z,101110.77
2018-07-25T22:12:27.609Z,101112.06
2018-07-25T22:14:54.760Z,101117.77
2018-07-25T22:17:21.945Z,101121.06
2018-07-25T22:19:49.096Z,101118.60
2018-07-25T22:22:16.426Z,101119.97
2018-07-25T22:24:43.555Z,101117.33
2018-07-25T22:27:10.671Z,101124.53
2018-07-25T22:29:37.855Z,101120.02
2018-07-25T22:32:05.047Z,101120.48
2018-07-25T22:34:32.171Z,101121.08
2018-07-25T22:36:59.375Z,101124.64
2018-07-25T22:39:26.591Z,101122.75
2018-07-25T22:41:55.306Z,101124.55
2018-07-25T22:44:22.517Z,101133.84
2018-07-25T22:46:49.653Z,101127.80
2018-07-25T22:49:16.781Z,101129.44
2018-07-25T22:51:43.932Z,101132.87
2018-07-25T22:54:11.024Z,101133.64
2018-07-25T22:56:38.121Z,101137.09
2018-07-25T22:59:05.365Z,101132.48
2018-07-25T23:01:32.511Z,101132.49
2018-07-25T23:03:59.653Z,101132.75
2018-07-25T23:06:26.908Z,101133.88
2018-07-25T23:08:54.024Z,101133.58
2018-07-25T23:11:21.129Z,101121.84
2018-07-25T23:13:48.281Z,101127.84
2018-07-25T23:16:16.581Z,101138.23
2018-07-25T23:18:44.112Z,101137.58
2018-07-25T23:21:11.313Z,101138.53
2018-07-25T23:23:38.492Z,101139.56
2018-07-25T23:26:05.601Z,101138.91
2018-07-25T23:28:32.848Z,101130.76
2018-07-25T23:30:59.967Z,101136.78
2018-07-25T23:33:27.101Z,101131.61
2018-07-25T23:35:54.267Z,101129.97
2018-07-25T23:38:21.428Z,101133.20
2018-07-25T23:40:48.631Z,101132.37
2018-07-25T23:43:15.815Z,101128.14
2018-07-25T23:45:43.019Z,101128.70
2018-07-25T23:48:10.152Z,101127.45
2018-07-25T23:50:37.325Z,101125.45
2018-07-25T23:53:04.521Z,101123.42
2018-07-25T23:55:31.661Z,101128.11
2018-07-25T23:57:58.913Z,101126.16
